Time;durP1;ratioP1;P1;durP2;ratioP2;P2;SDS_P1;SDS_P2;PMS_P1;PMS_P2;Temp;Humidity;BMP_temperature;BMP_pressure;BME280_temperature;BME280_humidity;BME280_pressure;Samples;Min_cycle;Max_cycle;Signal;HPM_P1;HPM_P2
2021/05/15 00:00:18;;;;;;;3.87;1.30;;;;;;;;;;4984335;28;20464;-75
2021/05/15 00:02:48;;;;;;;2.73;1.57;;;;;;;;;;5009028;28;20783;-75
2021/05/15 00:05:18;;;;;;;1.27;0.90;;;10.80;1.00;;;;;;4994292;28;20393;-75
2021/05/15 00:07:43;;;;;;;1.30;0.90;;;10.90;1.00;;;;;;5009273;28;20785;-75
2021/05/15 00:10:09;;;;;;;2.30;1.40;;;10.90;1.00;;;;;;4993340;28;20523;-73
2021/05/15 00:12:36;;;;;;;4.00;0.90;;;10.80;1.00;;;;;;4994093;28;20669;-73
2021/05/15 00:15:03;;;;;;;4.87;1.30;;;;;;;;;;4991963;28;20437;-73
2021/05/15 00:17:30;;;;;;;4.83;1.57;;;11.00;1.00;;;;;;4993655;28;20755;-73
2021/05/15 00:20:00;;;;;;;4.80;1.13;;;10.70;1.00;;;;;;4994134;28;20453;-73
2021/05/15 00:22:26;;;;;;;1.27;1.00;;;;;;;;;;4993942;28;20397;-73
2021/05/15 00:24:54;;;;;;;1.43;1.33;;;10.80;1.00;;;;;;4994462;28;20871;-75
2021/05/15 00:27:30;;;;;;;1.87;1.13;;;;;;;;;;4993753;28;20397;-75
2021/05/15 00:29:56;;;;;;;2.00;1.10;;;;;;;;;;4996858;28;20412;-75
2021/05/15 00:32:24;;;;;;;1.40;1.13;;;10.90;1.00;;;;;;4997845;28;20483;-75
2021/05/15 00:34:50;;;;;;;2.93;1.40;;;11.00;1.00;;;;;;4997137;28;20470;-76
2021/05/15 00:37:18;;;;;;;1.57;1.27;;;;;;;;;;4997537;28;20397;-75
2021/05/15 00:39:44;;;;;;;8.17;1.10;;;11.00;1.00;;;;;;4997579;28;20457;-74
2021/05/15 00:42:10;;;;;;;1.57;1.20;;;11.10;1.00;;;;;;4997497;28;20412;-75
2021/05/15 00:44:45;;;;;;;1.97;1.40;;;;;;;;;;4997267;28;20178;-75
2021/05/15 00:47:28;;;;;;;7.27;1.53;;;11.20;1.00;;;;;;4997062;28;20248;-75
2021/05/15 00:50:00;;;;;;;2.80;1.30;;;11.40;1.00;;;;;;4996207;28;20771;-75
2021/05/15 00:52:36;;;;;;;13.00;1.40;;;11.20;1.00;;;;;;4997617;28;20405;-75
2021/05/15 00:55:12;;;;;;;1.50;1.30;;;11.20;1.00;;;;;;4997437;28;20405;-73
2021/05/15 00:57:40;;;;;;;9.30;2.10;;;11.10;1.00;;;;;;4996455;28;20396;-73
2021/05/15 01:00:08;;;;;;;2.57;1.43;;;11.20;1.00;;;;;;4991785;28;20461;-73
2021/05/15 01:02:34;;;;;;;3.50;1.80;;;11.30;1.00;;;;;;4996815;28;20508;-73
2021/05/15 01:05:09;;;;;;;3.50;1.93;;;11.10;1.00;;;;;;4992461;28;20992;-73
2021/05/15 01:07:35;;;;;;;2.10;1.60;;;11.00;1.00;;;;;;4992137;28;20420;-73
2021/05/15 01:10:03;;;;;;;2.70;1.83;;;10.90;1.00;;;;;;4993935;28;20432;-73
2021/05/15 01:12:30;;;;;;;5.60;2.10;;;11.00;1.00;;;;;;4994306;28;20262;-73
2021/05/15 01:14:56;;;;;;;2.47;1.40;;;11.00;1.00;;;;;;4996641;28;20527;-73
2021/05/15 01:17:30;;;;;;;3.37;1.60;;;11.00;1.00;;;;;;4996914;28;20405;-73
2021/05/15 01:20:06;;;;;;;3.77;1.50;;;;;;;;;;4996554;28;20460;-73
2021/05/15 01:22:32;;;;;;;2.47;1.50;;;10.90;1.00;;;;;;4996577;28;20397;-73
2021/05/15 01:25:00;;;;;;;3.00;1.57;;;10.90;1.00;;;;;;4996667;28;21130;-73
2021/05/15 01:27:25;;;;;;;2.97;1.63;;;11.00;1.00;;;;;;4996661;28;20240;-73
2021/05/15 01:29:54;;;;;;;3.10;1.63;;;;;;;;;;5011186;28;20528;-73
2021/05/15 01:32:20;;;;;;;1.93;1.50;;;10.80;1.00;;;;;;4995830;28;20209;-73
2021/05/15 01:34:46;;;;;;;2.47;1.53;;;10.80;1.00;;;;;;4995256;28;20456;-73
2021/05/15 01:37:12;;;;;;;4.23;1.63;;;;;;;;;;4995434;28;20212;-73
2021/05/15 01:39:38;;;;;;;2.07;1.47;;;;;;;;;;4993175;28;20955;-73
2021/05/15 01:42:04;;;;;;;7.70;1.60;;;10.70;1.00;;;;;;4996020;28;20869;-75
2021/05/15 01:44:31;;;;;;;8.93;1.67;;;10.60;1.00;;;;;;4995209;28;20425;-75
2021/05/15 01:46:56;;;;;;;2.37;1.23;;;10.60;1.00;;;;;;4995881;28;20904;-75
2021/05/15 01:49:23;;;;;;;14.40;1.90;;;;;;;;;;4995933;28;20440;-75
2021/05/15 01:52:11;;;;;;;3.50;1.43;;;10.50;1.00;;;;;;4996573;28;20244;-75
2021/05/15 01:54:48;;;;;;;2.73;1.50;;;;;;;;;;4996105;28;20447;-75
2021/05/15 01:57:18;;;;;;;1.93;1.40;;;;;;;;;;5010743;28;20930;-73
2021/05/15 01:59:44;;;;;;;2.67;1.40;;;;;;;;;;4995780;28;20463;-73
2021/05/15 02:02:10;;;;;;;3.80;1.37;;;;;;;;;;5011019;28;20810;-73
2021/05/15 02:04:36;;;;;;;2.70;1.60;;;10.50;1.00;;;;;;4991773;28;20932;-73
2021/05/15 02:07:06;;;;;;;1.80;1.27;;;;;;;;;;4981636;28;20516;-73
2021/05/15 02:09:32;;;;;;;2.33;1.40;;;10.20;1.00;;;;;;4976240;28;20623;-73
2021/05/15 02:11:58;;;;;;;2.30;1.43;;;;;;;;;;4991826;28;20510;-73
2021/05/15 02:14:24;;;;;;;1.70;1.33;;;;;;;;;;4993951;28;20611;-73
2021/05/15 02:16:54;;;;;;;3.27;1.20;;;;;;;;;;4995075;28;20930;-72
2021/05/15 02:19:24;;;;;;;1.20;1.10;;;;;;;;;;5010637;28;20472;-73
2021/05/15 02:22:06;;;;;;;8.03;1.20;;;;;;;;;;4995099;28;20884;-73
2021/05/15 02:24:36;;;;;;;3.27;1.23;;;10.80;1.00;;;;;;4995577;28;20861;-73
2021/05/15 02:27:01;;;;;;;1.50;1.00;;;10.80;1.00;;;;;;4995173;28;20428;-73
2021/05/15 02:29:30;;;;;;;2.43;1.23;;;10.90;1.00;;;;;;4994075;28;20429;-73
2021/05/15 02:31:56;;;;;;;3.63;1.40;;;10.80;1.00;;;;;;4995050;28;20174;-73
2021/05/15 02:34:22;;;;;;;1.70;1.27;;;;;;;;;;4995406;28;20459;-73
2021/05/15 02:36:48;;;;;;;1.30;1.13;;;;;;;;;;4995070;28;20571;-73
2021/05/15 02:39:18;;;;;;;1.97;1.03;;;;;;;;;;4995290;28;20452;-73
2021/05/15 02:41:44;;;;;;;2.10;1.20;;;10.90;1.00;;;;;;4995467;28;20401;-73
2021/05/15 02:44:10;;;;;;;1.80;1.23;;;10.90;1.00;;;;;;4995041;28;20486;-73
2021/05/15 02:46:36;;;;;;;1.53;1.17;;;;;;;;;;4993728;28;20177;-73
2021/05/15 02:49:02;;;;;;;5.37;1.10;;;10.80;1.00;;;;;;4994746;28;20178;-73
2021/05/15 02:51:28;;;;;;;11.27;1.20;;;;;;;;;;5009922;28;20431;-73
2021/05/15 02:53:55;;;;;;;2.57;1.10;;;;;;;;;;4995007;28;20408;-73
2021/05/15 02:56:24;;;;;;;1.57;1.10;;;11.00;1.00;;;;;;4995457;28;20397;-75
2021/05/15 02:58:54;;;;;;;2.00;1.03;;;11.00;1.00;;;;;;4994831;28;20544;-75
2021/05/15 03:01:41;;;;;;;3.20;0.97;;;11.00;1.00;;;;;;4994976;28;20393;-75
2021/05/15 03:04:08;;;;;;;9.00;1.30;;;;;;;;;;4993413;28;20409;-75
2021/05/15 03:06:42;;;;;;;1.53;1.10;;;;;;;;;;4985832;28;20439;-75
2021/05/15 03:09:24;;;;;;;1.33;1.23;;;;;;;;;;4988898;28;20970;-75
2021/05/15 03:11:54;;;;;;;3.47;1.20;;;11.00;1.00;;;;;;4994871;28;20841;-73
2021/05/15 03:14:30;;;;;;;2.30;1.30;;;;;;;;;;4978300;28;20820;-73
2021/05/15 03:16:56;;;;;;;1.50;1.00;;;;;;;;;;4984935;28;20472;-73
2021/05/15 03:19:22;;;;;;;1.50;1.10;;;11.20;1.00;;;;;;4992874;28;20482;-73
2021/05/15 03:21:48;;;;;;;7.47;1.47;;;;;;;;;;4994368;28;20398;-73
2021/05/15 03:24:18;;;;;;;2.77;1.73;;;;;;;;;;4994570;28;20755;-73
2021/05/15 03:26:48;;;;;;;8.93;2.07;;;;;;;;;;4994608;28;20887;-75
2021/05/15 03:29:24;;;;;;;3.57;1.50;;;11.30;1.00;;;;;;4994153;28;20403;-75
2021/05/15 03:32:00;;;;;;;1.87;1.33;;;;;;;;;;4994692;28;20432;-76
2021/05/15 03:34:30;;;;;;;1.47;1.37;;;;;;;;;;4994671;28;20444;-75
2021/05/15 03:37:18;;;;;;;1.60;1.50;;;11.20;1.00;;;;;;4994488;28;20407;-75
2021/05/15 03:39:49;;;;;;;4.37;2.03;;;11.10;1.00;;;;;;4994115;28;20449;-75
2021/05/15 03:42:30;;;;;;;1.67;1.57;;;;;;;;;;4993732;28;20409;-75
2021/05/15 03:44:56;;;;;;;3.47;1.97;;;;;;;;;;4993755;28;20451;-75
2021/05/15 03:47:24;;;;;;;1.20;1.20;;;11.30;1.00;;;;;;4994965;28;20767;-75
2021/05/15 03:49:50;;;;;;;2.47;1.53;;;11.20;1.00;;;;;;4994519;28;20433;-76
2021/05/15 03:52:53;;;;;;;2.97;1.33;;;11.30;1.00;;;;;;4994041;28;20447;-76
2021/05/15 03:55:30;;;;;;;2.20;1.70;;;;;;;;;;4994243;28;20172;-75
2021/05/15 03:58:06;;;;;;;6.50;1.57;;;;;;;;;;4993170;28;20793;-78
2021/05/15 04:00:42;;;;;;;2.53;1.87;;;;;;;;;;4994138;28;20408;-75
2021/05/15 04:03:35;;;;;;;2.20;1.53;;;;;;;;;;4994799;28;20398;-76
2021/05/15 04:06:23;;;;;;;1.73;1.37;;;11.30;1.00;;;;;;4993021;28;20415;-75
2021/05/15 04:08:49;;;;;;;1.93;1.63;;;;;;;;;;4989106;28;20429;-75
2021/05/15 04:11:18;;;;;;;4.70;1.70;;;;;;;;;;4997885;28;20455;-75
2021/05/15 04:13:52;;;;;;;3.57;1.77;;;;;;;;;;4987238;28;20504;-73
2021/05/15 04:19:04;;;;;;;2.23;1.70;;;;;;;;;;4937575;29;21005;-73
2021/05/15 04:21:30;;;;;;;1.70;1.40;;;;;;;;;;4937589;29;20874;-73
2021/05/15 04:23:56;;;;;;;7.20;1.60;;;11.50;1.00;;;;;;4931529;29;20456;-73
2021/05/15 04:26:24;;;;;;;3.23;1.90;;;11.30;1.00;;;;;;4918759;29;20452;-73
2021/05/15 04:28:50;;;;;;;2.30;1.57;;;;;;;;;;4926191;29;20275;-73
2021/05/15 04:31:15;;;;;;;1.87;1.60;;;11.70;1.00;;;;;;4926901;29;20974;-73
2021/05/15 04:33:41;;;;;;;2.73;1.57;;;11.60;1.00;;;;;;4918617;29;20503;-73
2021/05/15 04:36:07;;;;;;;2.77;1.70;;;;;;;;;;4918540;29;20240;-73
2021/05/15 04:38:42;;;;;;;2.63;1.70;;;;;;;;;;4920592;29;20647;-73
2021/05/15 04:41:12;;;;;;;2.57;1.60;;;11.60;1.00;;;;;;4937382;29;20508;-73
2021/05/15 04:43:38;;;;;;;1.60;1.50;;;;;;;;;;4929547;29;20928;-73
2021/05/15 04:46:04;;;;;;;2.47;1.67;;;;;;;;;;4917962;29;20529;-73
2021/05/15 04:48:30;;;;;;;5.00;1.67;;;11.60;1.00;;;;;;4918487;29;20411;-73
2021/05/15 04:50:56;;;;;;;3.70;1.57;;;11.60;1.00;;;;;;4936567;29;20478;-73
2021/05/15 04:53:22;;;;;;;2.57;1.73;;;;;;;;;;4936330;29;20183;-73
2021/05/15 04:55:48;;;;;;;2.00;1.50;;;11.80;1.00;;;;;;4957874;28;20425;-73
2021/05/15 04:58:14;;;;;;;1.53;1.43;;;;;;;;;;4997034;28;20416;-73
2021/05/15 05:00:42;;;;;;;3.27;1.87;;;11.60;1.00;;;;;;4995105;28;20786;-73
2021/05/15 05:03:08;;;;;;;1.80;1.60;;;;;;;;;;4997022;28;20405;-73
2021/05/15 05:05:36;;;;;;;2.60;1.50;;;11.70;1.00;;;;;;4993356;28;20420;-73
2021/05/15 05:08:01;;;;;;;5.07;1.87;;;11.90;1.00;;;;;;4981150;28;20421;-73
2021/05/15 05:10:28;;;;;;;2.00;1.47;;;;;;;;;;4994670;28;20459;-73
2021/05/15 05:12:54;;;;;;;5.80;1.73;;;11.70;1.00;;;;;;4997279;28;20681;-73
2021/05/15 05:15:24;;;;;;;2.00;1.43;;;12.10;1.00;;;;;;4996739;28;20528;-78
2021/05/15 05:17:50;;;;;;;3.20;1.70;;;;;;;;;;4996239;28;20646;-78
2021/05/15 05:20:18;;;;;;;3.03;1.70;;;;;;;;;;4996676;28;20459;-80
2021/05/15 05:23:00;;;;;;;1.20;1.10;;;;;;;;;;4995068;28;21016;-79
2021/05/15 05:25:36;;;;;;;1.47;1.37;;;12.20;1.00;;;;;;4996265;28;20409;-78
2021/05/15 05:28:06;;;;;;;3.50;1.63;;;12.20;1.00;;;;;;4996888;28;20888;-75
2021/05/15 05:30:32;;;;;;;1.93;1.57;;;12.60;1.00;;;;;;4996447;28;20393;-77
2021/05/15 05:33:12;;;;;;;1.73;1.53;;;12.30;1.00;;;;;;4996033;28;20417;-77
2021/05/15 05:35:42;;;;;;;1.17;1.10;;;12.30;1.00;;;;;;4996442;28;20205;-77
2021/05/15 05:38:18;;;;;;;1.97;1.30;;;12.40;1.00;;;;;;4996752;28;20397;-76
2021/05/15 05:40:48;;;;;;;1.83;1.67;;;12.40;1.00;;;;;;4995951;28;20427;-76
2021/05/15 05:43:18;;;;;;;5.67;1.93;;;;;;;;;;4996505;28;20756;-72
2021/05/15 05:45:44;;;;;;;2.47;1.97;;;12.30;1.00;;;;;;4995900;28;20413;-72
2021/05/15 05:48:10;;;;;;;5.93;1.80;;;;;;;;;;4996202;28;20880;-72
2021/05/15 05:50:36;;;;;;;2.37;1.30;;;12.70;1.00;;;;;;4996060;28;20413;-72
2021/05/15 05:53:03;;;;;;;2.10;1.53;;;;;;;;;;4995726;28;20927;-72
2021/05/15 05:55:30;;;;;;;6.50;1.40;;;13.00;1.00;;;;;;4996230;28;20508;-73
2021/05/15 05:57:56;;;;;;;2.20;1.97;;;;;;;;;;4996033;28;20417;-72
2021/05/15 06:00:22;;;;;;;2.30;1.60;;;;;;;;;;4995373;28;20974;-72
2021/05/15 06:02:48;;;;;;;2.63;1.83;;;;;;;;;;4995578;28;20888;-72
2021/05/15 06:05:14;;;;;;;5.50;1.83;;;12.90;1.00;;;;;;4989597;28;20469;-72
2021/05/15 06:07:40;;;;;;;1.80;1.70;;;13.10;1.00;;;;;;4982890;28;20476;-72
2021/05/15 06:10:06;;;;;;;3.83;1.93;;;13.20;1.00;;;;;;4976411;28;20209;-72
2021/05/15 06:12:33;;;;;;;3.30;1.97;;;;;;;;;;4980334;28;20228;-72
2021/05/15 06:15:12;;;;;;;1.87;1.67;;;13.20;1.00;;;;;;4976717;28;20762;-74
2021/05/15 06:17:38;;;;;;;2.60;1.90;;;13.10;1.00;;;;;;4975622;28;20788;-74
2021/05/15 06:20:05;;;;;;;3.67;1.50;;;;;;;;;;4982829;28;20456;-74
2021/05/15 06:22:42;;;;;;;3.63;1.97;;;13.50;1.00;;;;;;4994096;28;20174;-78
2021/05/15 06:25:08;;;;;;;6.10;2.27;;;13.30;1.00;;;;;;4994629;28;20427;-79
2021/05/15 06:27:48;;;;;;;3.20;1.70;;;13.50;1.00;;;;;;4994735;28;20861;-84
2021/05/15 06:30:18;;;;;;;2.03;1.70;;;13.60;1.00;;;;;;4995722;28;20504;-75
2021/05/15 06:32:44;;;;;;;8.43;1.87;;;13.70;1.00;;;;;;4975945;28;20417;-77
2021/05/15 06:35:12;;;;;;;4.03;1.77;;;13.80;1.00;;;;;;4976258;28;20455;-78
2021/05/15 06:37:48;;;;;;;6.20;1.70;;;;;;;;;;4977529;28;20221;-76
2021/05/15 06:40:35;;;;;;;1.97;1.60;;;14.40;1.00;;;;;;4995209;28;20467;-76
2021/05/15 06:43:06;;;;;;;2.53;1.87;;;14.50;1.00;;;;;;4994811;28;20434;-72
2021/05/15 06:45:32;;;;;;;2.13;1.90;;;14.60;1.00;;;;;;4994549;28;20424;-72
2021/05/15 06:47:58;;;;;;;5.73;2.60;;;;;;;;;;4994175;28;20420;-72
2021/05/15 06:50:24;;;;;;;7.07;2.70;;;;;;;;;;4994399;28;20494;-72
2021/05/15 06:52:50;;;;;;;2.57;1.77;;;;;;;;;;4993617;28;20449;-72
2021/05/15 06:55:16;;;;;;;12.13;2.17;;;;;;;;;;4993634;28;20424;-72
2021/05/15 06:57:42;;;;;;;3.47;2.40;;;;;;;;;;4993528;28;20451;-72
2021/05/15 07:00:08;;;;;;;5.47;2.00;;;15.20;1.00;;;;;;4993639;28;20957;-72
2021/05/15 07:02:35;;;;;;;9.70;3.17;;;;;;;;;;5007485;28;20527;-72
2021/05/15 07:05:01;;;;;;;2.90;1.80;;;15.00;1.00;;;;;;4985075;28;20811;-72
2021/05/15 07:07:27;;;;;;;3.03;1.80;;;;;;;;;;4976744;28;20459;-72
2021/05/15 07:09:53;;;;;;;3.63;1.60;;;;;;;;;;4980980;28;20480;-72
2021/05/15 07:12:21;;;;;;;7.10;2.60;;;;;;;;;;4990748;28;20467;-72
2021/05/15 07:14:47;;;;;;;10.37;3.20;;;;;;;;;;4980352;28;20507;-72
2021/05/15 07:17:13;;;;;;;3.53;2.17;;;;;;;;;;4983956;28;20528;-73
2021/05/15 07:19:39;;;;;;;5.37;2.90;;;;;;;;;;4993300;28;20530;-72
2021/05/15 07:22:05;;;;;;;2.90;2.57;;;;;;;;;;4974456;28;20429;-72
2021/05/15 07:24:32;;;;;;;4.27;2.43;;;;;;;;;;4988224;28;20456;-72
2021/05/15 07:26:58;;;;;;;8.47;2.87;;;;;;;;;;4987349;28;20477;-72
2021/05/15 07:29:24;;;;;;;6.03;2.80;;;;;;;;;;4979101;28;20784;-73
2021/05/15 07:31:50;;;;;;;6.10;3.10;;;;;;;;;;4992510;28;20428;-72
2021/05/15 07:34:16;;;;;;;4.93;2.83;;;;;;;;;;4991282;28;20468;-72
2021/05/15 07:36:42;;;;;;;6.57;2.67;;;;;;;;;;4993074;28;20517;-72
2021/05/15 07:39:08;;;;;;;3.63;2.70;;;;;;;;;;4992456;28;20510;-72
2021/05/15 07:41:34;;;;;;;5.83;2.33;;;;;;;;;;4991554;28;20504;-72
2021/05/15 07:44:00;;;;;;;7.13;2.60;;;;;;;;;;4980134;28;20459;-72
2021/05/15 07:46:26;;;;;;;4.87;2.70;;;;;;;;;;4993089;28;20408;-72
2021/05/15 07:48:52;;;;;;;5.00;2.60;;;14.80;1.00;;;;;;4987832;28;20509;-72
2021/05/15 07:51:22;;;;;;;2.60;2.13;;;15.10;1.00;;;;;;4984429;28;20511;-72
2021/05/15 07:53:49;;;;;;;6.63;2.50;;;15.10;1.00;;;;;;4987366;28;20261;-72
2021/05/15 07:56:16;;;;;;;3.80;2.30;;;;;;;;;;4992925;28;20419;-72
2021/05/15 07:58:42;;;;;;;5.90;2.23;;;;;;;;;;4982034;28;20511;-72
2021/05/15 08:01:08;;;;;;;5.60;2.27;;;;;;;;;;4983367;28;20866;-73
2021/05/15 08:03:34;;;;;;;5.00;2.50;;;;;;;;;;4981177;28;20406;-72
2021/05/15 08:06:00;;;;;;;5.90;2.57;;;;;;;;;;4986915;28;20423;-72
2021/05/15 08:08:26;;;;;;;11.40;2.77;;;;;;;;;;4994868;28;20398;-74
2021/05/15 08:10:52;;;;;;;4.20;2.63;;;;;;;;;;4983967;28;20479;-73
2021/05/15 08:13:18;;;;;;;3.40;2.20;;;;;;;;;;4992930;28;20409;-73
2021/05/15 08:15:45;;;;;;;2.30;1.90;;;;;;;;;;4993648;28;20519;-76
2021/05/15 08:18:11;;;;;;;3.23;1.87;;;16.00;1.00;;;;;;4993258;28;20850;-75
2021/05/15 08:20:37;;;;;;;15.13;3.07;;;;;;;;;;4992496;28;20842;-76
2021/05/15 08:23:03;;;;;;;1.70;1.60;;;;;;;;;;5008457;28;20769;-76
2021/05/15 08:25:29;;;;;;;5.90;2.10;;;;;;;;;;4993229;28;20443;-76
2021/05/15 08:27:58;;;;;;;4.83;2.57;;;;;;;;;;4992339;28;20489;-76
2021/05/15 08:30:26;;;;;;;16.03;2.17;;;;;;;;;;4992859;28;20424;-72
2021/05/15 08:32:53;;;;;;;3.67;1.90;;;;;;;;;;4992376;28;20422;-72
2021/05/15 08:35:20;;;;;;;5.50;2.23;;;16.80;1.00;;;;;;4992551;28;20430;-73
2021/05/15 08:37:46;;;;;;;4.20;2.63;;;;;;;;;;5007626;28;20882;-73
2021/05/15 08:40:13;;;;;;;4.90;1.97;;;16.90;1.00;;;;;;4992311;28;20499;-72
2021/05/15 08:42:40;;;;;;;3.83;2.20;;;;;;;;;;4991522;28;20429;-73
2021/05/15 08:45:09;;;;;;;3.17;2.20;;;16.70;1.00;;;;;;4994115;28;20449;-75
2021/05/15 08:47:41;;;;;;;2.53;2.10;;;;;;;;;;4994060;28;20484;-76
2021/05/15 08:50:17;;;;;;;1.80;1.70;;;16.70;1.00;;;;;;4995900;28;20394;-75
2021/05/15 08:52:45;;;;;;;2.40;1.97;;;16.60;1.00;;;;;;4996864;28;20450;-76
2021/05/15 08:55:13;;;;;;;5.17;2.40;;;;;;;;;;4996142;28;20922;-76
2021/05/15 08:57:39;;;;;;;2.53;2.30;;;16.70;1.00;;;;;;4996209;28;20376;-76
2021/05/15 09:00:24;;;;;;;2.70;1.97;;;16.80;1.00;;;;;;4976971;28;20450;-73
2021/05/15 09:02:53;;;;;;;4.90;2.47;;;16.80;1.00;;;;;;4983333;28;20432;-73
2021/05/15 09:05:21;;;;;;;8.30;2.43;;;16.70;1.00;;;;;;4996038;28;20403;-73
2021/05/15 09:07:55;;;;;;;6.20;2.70;;;16.60;1.00;;;;;;4996094;28;20401;-73
2021/05/15 09:10:24;;;;;;;4.70;2.17;;;16.30;1.00;;;;;;4986773;28;20429;-73
2021/05/15 09:12:50;;;;;;;12.13;2.93;;;;;;;;;;4996329;28;20417;-72
2021/05/15 09:15:16;;;;;;;3.87;2.20;;;;;;;;;;4995949;28;20437;-72
2021/05/15 09:17:46;;;;;;;10.23;2.50;;;16.20;1.00;;;;;;4995689;28;20390;-72
2021/05/15 09:20:33;;;;;;;9.00;2.63;;;16.40;1.00;;;;;;4995711;28;20441;-72
2021/05/15 09:23:11;;;;;;;3.23;2.40;;;16.40;1.00;;;;;;4995884;28;20409;-72
2021/05/15 09:25:37;;;;;;;13.80;3.60;;;;;;;;;;4995749;28;20402;-72
2021/05/15 09:28:03;;;;;;;3.53;2.17;;;;;;;;;;4995382;28;20405;-72
2021/05/15 09:30:31;;;;;;;6.67;2.57;;;16.50;1.00;;;;;;4995759;28;20807;-72
2021/05/15 09:32:57;;;;;;;7.80;2.43;;;16.80;1.00;;;;;;4991840;28;20417;-72
2021/05/15 09:35:25;;;;;;;4.57;2.40;;;17.00;1.00;;;;;;4994830;28;20425;-72
2021/05/15 09:38:00;;;;;;;14.20;3.00;;;16.90;1.00;;;;;;5011207;28;20269;-72
2021/05/15 09:40:28;;;;;;;4.90;2.53;;;16.70;1.00;;;;;;4995562;28;20969;-72
2021/05/15 09:43:00;;;;;;;4.10;2.20;;;16.60;1.00;;;;;;4995555;28;20438;-72
2021/05/15 09:45:28;;;;;;;5.37;2.03;;;16.40;1.00;;;;;;4996033;28;20449;-73
2021/05/15 09:47:59;;;;;;;4.30;2.10;;;16.40;1.00;;;;;;4995794;28;20422;-72
2021/05/15 09:50:33;;;;;;;3.13;2.00;;;16.30;1.00;;;;;;4995980;28;21006;-73
2021/05/15 09:53:08;;;;;;;3.00;2.10;;;16.30;1.00;;;;;;4996141;28;20410;-73
2021/05/15 09:55:35;;;;;;;2.73;1.90;;;;;;;;;;4995839;28;20399;-73
2021/05/15 09:58:04;;;;;;;2.17;1.87;;;16.70;1.00;;;;;;4987270;28;20440;-73
2021/05/15 10:00:42;;;;;;;2.20;2.00;;;16.60;1.00;;;;;;4990269;28;20466;-76
2021/05/15 10:03:17;;;;;;;2.87;1.93;;;;;;;;;;4993143;28;20931;-73
2021/05/15 10:05:43;;;;;;;3.53;2.20;;;16.60;1.00;;;;;;4985976;28;20413;-73
2021/05/15 10:08:09;;;;;;;6.30;1.97;;;;;;;;;;4994503;28;20405;-73
2021/05/15 10:10:36;;;;;;;4.20;1.70;;;16.10;1.00;;;;;;4995311;28;20174;-74
2021/05/15 10:13:06;;;;;;;7.47;1.20;;;15.60;1.00;;;;;;4994327;28;20789;-74
2021/05/15 10:15:32;;;;;;;2.57;0.90;;;15.10;1.00;;;;;;4996105;28;20436;-73
2021/05/15 10:17:58;;;;;;;2.67;1.30;;;15.00;1.00;;;;;;4994396;28;20472;-73
2021/05/15 10:20:30;;;;;;;5.13;1.70;;;14.60;1.00;;;;;;4995333;28;20561;-73
2021/05/15 10:22:56;;;;;;;1.63;1.10;;;;;;;;;;4995215;28;20531;-73
2021/05/15 10:25:22;;;;;;;5.63;1.50;;;14.30;1.00;;;;;;5009940;28;20417;-73
2021/05/15 10:27:48;;;;;;;3.57;1.67;;;;;;;;;;4994228;28;20444;-73
2021/05/15 10:30:20;;;;;;;1.27;1.00;;;14.10;1.00;;;;;;4994868;28;20401;-73
2021/05/15 10:33:23;;;;;;;5.30;0.90;;;14.10;1.00;;;;;;4995454;28;20836;-78
2021/05/15 10:35:54;;;;;;;14.47;1.00;;;14.20;1.00;;;;;;4995187;28;20397;-77
2021/05/15 10:38:38;;;;;;;4.93;1.10;;;14.30;1.00;;;;;;4993186;28;20439;-77
2021/05/15 10:41:42;;;;;;;67.87;4.90;;;14.50;1.00;;;;;;4977982;28;20524;-78
2021/05/15 10:44:43;;;;;;;0.93;0.60;;;14.80;1.00;;;;;;4994931;28;20465;-77
2021/05/15 10:47:12;;;;;;;4.60;1.23;;;15.00;1.00;;;;;;4991083;28;20524;-74
2021/05/15 10:49:39;;;;;;;9.30;1.10;;;15.40;1.00;;;;;;4990983;28;20794;-73
2021/05/15 10:52:12;;;;;;;14.50;1.40;;;15.70;1.00;;;;;;4994909;28;20827;-73
2021/05/15 10:54:44;;;;;;;80.10;4.67;;;15.90;1.00;;;;;;4993904;28;20436;-74
2021/05/15 10:57:14;;;;;;;13.63;1.47;;;16.10;1.00;;;;;;4985225;28;20456;-73
2021/05/15 10:59:42;;;;;;;97.17;3.93;;;16.30;1.00;;;;;;4994648;28;20451;-73
2021/05/15 11:02:09;;;;;;;12.40;1.00;;;;;;;;;;4994404;28;20433;-73
2021/05/15 11:04:53;;;;;;;20.43;1.40;;;16.70;1.00;;;;;;5008593;28;20425;-73
2021/05/15 11:07:35;;;;;;;5.50;0.97;;;16.70;1.00;;;;;;4991089;28;20497;-73
2021/05/15 11:10:04;;;;;;;2.90;0.70;;;16.80;1.00;;;;;;4993475;28;20752;-73
2021/05/15 11:12:38;;;;;;;1.27;0.77;;;16.60;1.00;;;;;;4994141;28;20902;-73
2021/05/15 11:15:06;;;;;;;1.27;0.63;;;16.60;1.00;;;;;;4975576;28;20415;-73
2021/05/15 11:17:43;;;;;;;12.03;1.67;;;16.70;1.00;;;;;;4979211;28;20426;-77
2021/05/15 11:20:18;;;;;;;4.87;0.70;;;16.90;1.00;;;;;;4987807;28;20432;-77
2021/05/15 11:22:53;;;;;;;1.00;0.60;;;17.00;1.00;;;;;;4983967;28;20394;-77
2021/05/15 11:25:32;;;;;;;2.60;0.83;;;17.30;1.00;;;;;;4994441;28;20439;-76
2021/05/15 11:28:07;;;;;;;1.87;0.80;;;17.50;1.00;;;;;;4995349;28;20484;-77
2021/05/15 11:30:41;;;;;;;7.27;1.20;;;17.50;1.00;;;;;;4982036;28;20525;-76
2021/05/15 11:33:20;;;;;;;1.17;0.70;;;17.60;1.00;;;;;;4994455;28;20454;-77
2021/05/15 11:36:06;;;;;;;1.37;0.60;;;17.80;1.00;;;;;;4994374;28;20402;-77
2021/05/15 11:38:56;;;;;;;2.57;1.00;;;18.10;1.00;;;;;;4994225;28;20392;-77
2021/05/15 11:41:22;;;;;;;2.20;0.70;;;18.20;1.00;;;;;;4998668;28;20437;-77
2021/05/15 11:43:49;;;;;;;4.50;1.20;;;18.40;1.00;;;;;;4994496;28;20812;-76
2021/05/15 11:46:30;;;;;;;2.87;0.90;;;18.50;1.00;;;;;;4993673;28;20423;-75
2021/05/15 11:48:56;;;;;;;2.93;1.00;;;18.70;1.00;;;;;;4994348;28;20976;-75
2021/05/15 11:51:26;;;;;;;1.30;0.90;;;18.80;1.00;;;;;;4994427;28;20423;-75
2021/05/15 11:54:35;;;;;;;1.57;0.83;;;18.90;1.00;;;;;;4994144;28;20171;-75
2021/05/15 11:57:06;;;;;;;2.13;0.90;;;18.90;1.00;;;;;;4994123;28;20404;-75
2021/05/15 11:59:32;;;;;;;1.87;0.90;;;19.00;1.00;;;;;;4994235;28;20447;-75
2021/05/15 12:02:00;;;;;;;5.20;1.10;;;18.90;1.00;;;;;;4989933;28;20430;-75
2021/05/15 12:04:29;;;;;;;1.33;0.80;;;18.60;1.00;;;;;;4986483;28;20438;-75
2021/05/15 12:07:06;;;;;;;1.27;0.70;;;18.90;1.00;;;;;;5004655;28;20507;-75
2021/05/15 12:09:36;;;;;;;1.97;1.23;;;18.80;1.00;;;;;;4993980;28;20427;-75
2021/05/15 12:12:13;;;;;;;2.97;0.97;;;18.90;1.00;;;;;;4993742;28;20432;-75
2021/05/15 12:14:42;;;;;;;3.20;1.67;;;18.90;1.00;;;;;;4994459;28;20427;-75
2021/05/15 12:17:13;;;;;;;1.70;0.87;;;19.00;1.00;;;;;;4993894;28;20453;-72
2021/05/15 12:19:39;;;;;;;6.33;1.23;;;;;;;;;;4974224;28;20870;-73
2021/05/15 12:22:07;;;;;;;1.20;0.77;;;19.30;1.00;;;;;;4985298;28;20466;-78
2021/05/15 12:24:38;;;;;;;5.80;1.40;;;19.30;1.00;;;;;;4993824;28;20451;-72
2021/05/15 12:27:19;;;;;;;4.60;1.10;;;19.50;1.00;;;;;;4997338;28;20419;-72
2021/05/15 12:29:45;;;;;;;12.40;2.27;;;19.40;1.00;;;;;;4996653;28;20506;-72
2021/05/15 12:32:11;;;;;;;1.60;0.90;;;;;;;;;;4996640;28;20780;-75
2021/05/15 12:34:42;;;;;;;4.83;1.27;;;19.70;1.00;;;;;;4997418;28;20387;-75
2021/05/15 12:37:20;;;;;;;4.00;1.20;;;19.80;1.00;;;;;;4997699;28;20491;-75
2021/05/15 12:39:52;;;;;;;2.47;1.17;;;19.80;1.00;;;;;;4997505;28;20482;-76
2021/05/15 12:42:18;;;;;;;1.00;0.90;;;19.70;1.00;;;;;;4997338;28;20375;-76
2021/05/15 12:44:48;;;;;;;0.83;0.80;;;19.90;1.00;;;;;;4996679;28;21068;-77
2021/05/15 12:47:14;;;;;;;1.20;0.87;;;;;;;;;;4996955;28;20382;-76
2021/05/15 12:49:41;;;;;;;151.23;81.50;;;19.80;1.00;;;;;;4995637;28;20432;-77
2021/05/15 12:52:36;;;;;;;136.13;70.97;;;19.60;1.00;;;;;;5010612;28;20462;-77
2021/05/15 12:55:09;;;;;;;51.23;16.00;;;19.60;1.00;;;;;;4986848;28;20398;-75
2021/05/15 12:57:35;;;;;;;6.60;2.57;;;19.40;1.00;;;;;;4996447;28;20443;-76
2021/05/15 13:00:01;;;;;;;5.17;1.80;;;;;;;;;;4982426;28;20982;-76
2021/05/15 13:02:27;;;;;;;7.13;2.10;;;;;;;;;;4996540;28;20886;-73
2021/05/15 13:05:01;;;;;;;4.13;1.30;;;19.10;1.00;;;;;;4996124;28;20394;-73
2021/05/15 13:07:35;;;;;;;54.50;10.37;;;19.10;1.00;;;;;;4996145;28;20394;-73
2021/05/15 13:10:11;;;;;;;32.83;4.47;;;18.90;1.00;;;;;;4996815;28;20898;-75
2021/05/15 13:12:40;;;;;;;56.50;4.70;;;18.50;1.00;;;;;;4987426;28;20409;-75
2021/05/15 13:15:07;;;;;;;3.50;1.60;;;18.20;1.00;;;;;;4990599;28;20414;-74
2021/05/15 13:17:37;;;;;;;25.37;14.57;;;17.70;1.00;;;;;;4996916;28;20401;-73
2021/05/15 13:20:07;;;;;;;9.77;4.40;;;17.40;1.00;;;;;;4994548;28;20946;-72
2021/05/15 13:22:32;;;;;;;5.23;2.30;;;17.10;1.00;;;;;;4977002;28;20401;-74
2021/05/15 13:24:58;;;;;;;2.33;1.50;;;;;;;;;;4984197;28;20482;-74
2021/05/15 13:27:24;;;;;;;87.07;35.23;;;16.50;1.00;;;;;;4996079;28;20665;-74
2021/05/15 13:29:50;;;;;;;399.33;176.47;;;;;;;;;;4994724;28;20403;-73
2021/05/15 13:32:16;;;;;;;166.57;68.17;;;16.20;1.00;;;;;;5006396;28;20753;-73
2021/05/15 13:34:42;;;;;;;60.57;25.93;;;16.00;1.00;;;;;;5013469;28;20404;-76
2021/05/15 13:37:12;;;;;;;52.47;20.83;;;16.10;1.00;;;;;;4996589;28;20220;-83
2021/05/15 13:39:38;;;;;;;52.50;21.27;;;16.40;1.00;;;;;;4999927;28;20462;-80
2021/05/15 13:42:06;;;;;;;27.27;11.50;;;16.30;1.00;;;;;;4985172;28;20438;-76
2021/05/15 13:44:42;;;;;;;23.23;10.53;;;16.60;1.00;;;;;;4992631;28;20182;-76
2021/05/15 13:47:08;;;;;;;12.63;6.40;;;16.60;1.00;;;;;;4975556;28;20892;-75
2021/05/15 13:49:42;;;;;;;8.20;3.37;;;16.70;1.00;;;;;;4985135;28;20400;-76
2021/05/15 13:52:08;;;;;;;130.93;56.93;;;;;;;;;;4982742;28;20525;-76